sensor_id;sensor_type;location;lat;lon;timestamp;pressure;altitude;pressure_sealevel;temperature;humidity
70229;BME280;57617;51.988;5.854;2023-02-19T00:03:57;101266.16;;;13.14;75.64
70229;BME280;57617;51.988;5.854;2023-02-19T00:06:25;101284.69;;;13.12;75.41
70229;BME280;57617;51.988;5.854;2023-02-19T00:08:51;101265.28;;;13.08;75.63
70229;BME280;57617;51.988;5.854;2023-02-19T00:11:19;101269.41;;;13.11;74.92
70229;BME280;57617;51.988;5.854;2023-02-19T00:13:47;101274.03;;;13.10;74.92
70229;BME280;57617;51.988;5.854;2023-02-19T00:16:16;101254.84;;;13.05;75.33
70229;BME280;57617;51.988;5.854;2023-02-19T00:18:42;101267.72;;;13.10;75.32
70229;BME280;57617;51.988;5.854;2023-02-19T00:21:08;101257.56;;;13.05;75.01
70229;BME280;57617;51.988;5.854;2023-02-19T00:23:33;101265.84;;;13.10;75.40
70229;BME280;57617;51.988;5.854;2023-02-19T00:26:07;101274.50;;;13.07;75.57
70229;BME280;57617;51.988;5.854;2023-02-19T00:28:33;101272.38;;;13.09;75.05
70229;BME280;57617;51.988;5.854;2023-02-19T00:31:09;101276.50;;;13.12;75.32
70229;BME280;57617;51.988;5.854;2023-02-19T00:33:36;101276.00;;;13.15;75.48
70229;BME280;57617;51.988;5.854;2023-02-19T00:36:03;101268.66;;;13.15;75.13
70229;BME280;57617;51.988;5.854;2023-02-19T00:38:29;101258.81;;;13.14;75.30
70229;BME280;57617;51.988;5.854;2023-02-19T00:40:54;101261.31;;;13.16;74.96
70229;BME280;57617;51.988;5.854;2023-02-19T00:43:20;101258.31;;;13.17;75.14
70229;BME280;57617;51.988;5.854;2023-02-19T00:45:45;101255.25;;;13.14;75.41
70229;BME280;57617;51.988;5.854;2023-02-19T00:48:10;101269.97;;;13.13;75.11
70229;BME280;57617;51.988;5.854;2023-02-19T00:50:36;101271.63;;;13.14;75.50
70229;BME280;57617;51.988;5.854;2023-02-19T00:53:01;101263.13;;;13.10;75.00
70229;BME280;57617;51.988;5.854;2023-02-19T00:55:26;101270.47;;;13.10;75.19
70229;BME280;57617;51.988;5.854;2023-02-19T00:57:51;101268.56;;;13.10;75.45
70229;BME280;57617;51.988;5.854;2023-02-19T01:00:17;101270.72;;;13.08;75.41
70229;BME280;57617;51.988;5.854;2023-02-19T01:02:42;101271.78;;;13.07;75.05
70229;BME280;57617;51.988;5.854;2023-02-19T01:05:07;101276.66;;;13.05;75.25
70229;BME280;57617;51.988;5.854;2023-02-19T01:07:35;101259.72;;;13.03;75.21
70229;BME280;57617;51.988;5.854;2023-02-19T01:10:01;101266.09;;;13.09;75.06
70229;BME280;57617;51.988;5.854;2023-02-19T01:12:26;101276.41;;;13.07;75.61
70229;BME280;57617;51.988;5.854;2023-02-19T01:14:52;101276.41;;;13.07;75.36
70229;BME280;57617;51.988;5.854;2023-02-19T01:17:18;101275.59;;;13.06;75.14
70229;BME280;57617;51.988;5.854;2023-02-19T01:19:44;101278.06;;;13.08;75.31
70229;BME280;57617;51.988;5.854;2023-02-19T01:22:09;101282.25;;;12.99;75.18
70229;BME280;57617;51.988;5.854;2023-02-19T01:24:34;101285.59;;;13.01;75.47
70229;BME280;57617;51.988;5.854;2023-02-19T01:27:00;101289.13;;;13.01;75.38
70229;BME280;57617;51.988;5.854;2023-02-19T01:29:25;101290.44;;;12.99;75.12
70229;BME280;57617;51.988;5.854;2023-02-19T01:31:50;101289.63;;;12.98;75.23
70229;BME280;57617;51.988;5.854;2023-02-19T01:34:15;101288.22;;;12.96;75.47
70229;BME280;57617;51.988;5.854;2023-02-19T01:36:41;101295.66;;;13.00;75.79
70229;BME280;57617;51.988;5.854;2023-02-19T01:39:06;101289.13;;;13.01;75.51
70229;BME280;57617;51.988;5.854;2023-02-19T01:41:34;101287.00;;;13.03;75.55
70229;BME280;57617;51.988;5.854;2023-02-19T01:44:07;101297.91;;;13.03;75.02
70229;BME280;57617;51.988;5.854;2023-02-19T01:46:51;101295.41;;;13.02;75.49
70229;BME280;57617;51.988;5.854;2023-02-19T01:49:51;101293.25;;;13.04;75.12
70229;BME280;57617;51.988;5.854;2023-02-19T01:52:26;101296.22;;;13.02;75.05
70229;BME280;57617;51.988;5.854;2023-02-19T01:54:55;101302.75;;;13.01;75.04
70229;BME280;57617;51.988;5.854;2023-02-19T01:57:24;101299.22;;;13.01;75.46
70229;BME280;57617;51.988;5.854;2023-02-19T01:59:53;101307.41;;;13.01;75.13
70229;BME280;57617;51.988;5.854;2023-02-19T02:02:21;101283.97;;;12.88;74.86
70229;BME280;57617;51.988;5.854;2023-02-19T02:04:47;101290.31;;;12.94;75.24
70229;BME280;57617;51.988;5.854;2023-02-19T02:07:13;101303.28;;;12.98;75.04
70229;BME280;57617;51.988;5.854;2023-02-19T02:09:56;101298.84;;;12.97;75.00
70229;BME280;57617;51.988;5.854;2023-02-19T02:12:41;101315.22;;;12.97;75.15
70229;BME280;57617;51.988;5.854;2023-02-19T02:15:06;101298.84;;;12.97;74.93
70229;BME280;57617;51.988;5.854;2023-02-19T02:22:35;101298.25;;;12.95;74.92
70229;BME280;57617;51.988;5.854;2023-02-19T02:28:34;101295.19;;;12.92;75.24
70229;BME280;57617;51.988;5.854;2023-02-19T02:31:16;101299.00;;;12.91;74.90
70229;BME280;57617;51.988;5.854;2023-02-19T02:36:28;101298.63;;;12.87;75.23
70229;BME280;57617;51.988;5.854;2023-02-19T02:38:56;101302.19;;;12.88;75.13
70229;BME280;57617;51.988;5.854;2023-02-19T02:41:23;101294.75;;;12.83;75.22
70229;BME280;57617;51.988;5.854;2023-02-19T02:43:48;101313.09;;;12.88;75.25
70229;BME280;57617;51.988;5.854;2023-02-19T02:46:19;101306.81;;;12.87;74.93
70229;BME280;57617;51.988;5.854;2023-02-19T02:48:50;101306.25;;;12.85;75.13
70229;BME280;57617;51.988;5.854;2023-02-19T02:51:40;101307.31;;;12.84;75.28
70229;BME280;57617;51.988;5.854;2023-02-19T02:54:20;101311.69;;;12.85;75.16
70229;BME280;57617;51.988;5.854;2023-02-19T02:57:06;101320.94;;;12.84;75.51
70229;BME280;57617;51.988;5.854;2023-02-19T02:59:36;101317.16;;;12.85;75.19
70229;BME280;57617;51.988;5.854;2023-02-19T03:02:10;101311.03;;;12.78;75.23
70229;BME280;57617;51.988;5.854;2023-02-19T03:04:53;101320.84;;;12.79;75.39
70229;BME280;57617;51.988;5.854;2023-02-19T03:07:49;101325.78;;;12.82;75.03
70229;BME280;57617;51.988;5.854;2023-02-19T03:10:21;101320.84;;;12.79;74.96
70229;BME280;57617;51.988;5.854;2023-02-19T03:12:49;101320.19;;;12.72;75.04
70229;BME280;57617;51.988;5.854;2023-02-19T03:15:42;101325.72;;;12.77;75.45
70229;BME280;57617;51.988;5.854;2023-02-19T03:18:28;101334.47;;;12.79;74.90
70229;BME280;57617;51.988;5.854;2023-02-19T03:21:16;101329.59;;;12.81;74.93
70229;BME280;57617;51.988;5.854;2023-02-19T03:23:44;101338.28;;;12.78;74.88
70229;BME280;57617;51.988;5.854;2023-02-19T03:26:31;101342.09;;;12.77;75.31
70229;BME280;57617;51.988;5.854;2023-02-19T03:28:57;101348.34;;;12.78;74.96
70229;BME280;57617;51.988;5.854;2023-02-19T03:31:44;101345.16;;;12.81;74.83
70229;BME280;57617;51.988;5.854;2023-02-19T03:34:16;101348.22;;;12.84;74.71
70229;BME280;57617;51.988;5.854;2023-02-19T03:36:47;101343.56;;;12.85;75.01
70229;BME280;57617;51.988;5.854;2023-02-19T03:39:19;101347.38;;;12.84;75.05
70229;BME280;57617;51.988;5.854;2023-02-19T03:47:11;101359.13;;;12.84;74.94
70229;BME280;57617;51.988;5.854;2023-02-19T03:55:16;101354.13;;;12.81;75.09
70229;BME280;57617;51.988;5.854;2023-02-19T03:57:53;101367.75;;;12.81;75.13
70229;BME280;57617;51.988;5.854;2023-02-19T04:00:33;101367.19;;;12.79;75.44
70229;BME280;57617;51.988;5.854;2023-02-19T04:05:37;101374.53;;;12.79;74.67
70229;BME280;57617;51.988;5.854;2023-02-19T04:08:09;101367.19;;;12.79;74.65
70229;BME280;57617;51.988;5.854;2023-02-19T04:10:35;101374.78;;;12.77;74.82
70229;BME280;57617;51.988;5.854;2023-02-19T04:13:07;101383.22;;;12.76;75.18
70229;BME280;57617;51.988;5.854;2023-02-19T04:15:35;101384.00;;;12.76;74.86
70229;BME280;57617;51.988;5.854;2023-02-19T04:18:11;101391.16;;;12.77;75.32
70229;BME280;57617;51.988;5.854;2023-02-19T04:20:41;101393.59;;;12.79;74.90
70229;BME280;57617;51.988;5.854;2023-02-19T04:23:08;101375.06;;;12.64;75.19
70229;BME280;57617;51.988;5.854;2023-02-19T04:25:34;101397.06;;;12.74;74.71
70229;BME280;57617;51.988;5.854;2023-02-19T04:28:02;101401.94;;;12.72;74.98
70229;BME280;57617;51.988;5.854;2023-02-19T04:30:28;101404.91;;;12.71;74.78
70229;BME280;57617;51.988;5.854;2023-02-19T04:32:53;101400.53;;;12.70;74.91
70229;BME280;57617;51.988;5.854;2023-02-19T04:35:18;101387.38;;;12.55;75.34
70229;BME280;57617;51.988;5.854;2023-02-19T04:37:43;101407.28;;;12.67;75.34
70229;BME280;57617;51.988;5.854;2023-02-19T04:40:09;101410.59;;;12.69;74.69
70229;BME280;57617;51.988;5.854;2023-02-19T04:42:34;101412.75;;;12.67;74.68
70229;BME280;57617;51.988;5.854;2023-02-19T04:45:00;101423.03;;;12.65;74.96
70229;BME280;57617;51.988;5.854;2023-02-19T04:47:25;101427.69;;;12.65;75.33
70229;BME280;57617;51.988;5.854;2023-02-19T04:49:50;101428.47;;;12.65;75.18
70229;BME280;57617;51.988;5.854;2023-02-19T04:52:15;101435.47;;;12.61;75.27
70229;BME280;57617;51.988;5.854;2023-02-19T04:54:41;101439.78;;;12.57;74.94
70229;BME280;57617;51.988;5.854;2023-02-19T04:57:06;101448.97;;;12.56;75.43
70229;BME280;57617;51.988;5.854;2023-02-19T04:59:32;101458.59;;;12.59;75.54
70229;BME280;57617;51.988;5.854;2023-02-19T05:01:57;101451.47;;;12.58;75.32
70229;BME280;57617;51.988;5.854;2023-02-19T05:04:23;101457.78;;;12.58;74.95
70229;BME280;57617;51.988;5.854;2023-02-19T05:06:49;101460.25;;;12.60;74.94
70229;BME280;57617;51.988;5.854;2023-02-19T05:09:14;101474.13;;;12.58;75.34
70229;BME280;57617;51.988;5.854;2023-02-19T05:11:40;101465.94;;;12.58;75.43
70229;BME280;57617;51.988;5.854;2023-02-19T05:14:05;101464.88;;;12.59;74.91
70229;BME280;57617;51.988;5.854;2023-02-19T05:16:30;101471.03;;;12.55;75.28
70229;BME280;57617;51.988;5.854;2023-02-19T05:18:57;101471.97;;;12.60;75.11
70229;BME280;57617;51.988;5.854;2023-02-19T05:21:22;101469.03;;;12.62;74.62
70229;BME280;57617;51.988;5.854;2023-02-19T05:23:48;101470.09;;;12.61;74.98
70229;BME280;57617;51.988;5.854;2023-02-19T05:26:19;101477.19;;;12.62;75.03
70229;BME280;57617;51.988;5.854;2023-02-19T05:28:48;101468.19;;;12.61;75.02
70229;BME280;57617;51.988;5.854;2023-02-19T05:31:14;101476.97;;;12.63;75.13
70229;BME280;57617;51.988;5.854;2023-02-19T05:33:39;101475.06;;;12.64;75.20
70229;BME280;57617;51.988;5.854;2023-02-19T05:36:09;101483.22;;;12.64;74.55
70229;BME280;57617;51.988;5.854;2023-02-19T05:38:35;101486.22;;;12.62;74.83
70229;BME280;57617;51.988;5.854;2023-02-19T05:43:37;101487.97;;;12.57;74.76
70229;BME280;57617;51.988;5.854;2023-02-19T05:46:03;101488.81;;;12.57;74.60
70229;BME280;57617;51.988;5.854;2023-02-19T05:48:29;101486.31;;;12.56;74.67
70229;BME280;57617;51.988;5.854;2023-02-19T05:51:00;101486.31;;;12.56;75.31
70229;BME280;57617;51.988;5.854;2023-02-19T05:53:26;101489.41;;;12.59;75.17
70229;BME280;57617;51.988;5.854;2023-02-19T05:55:51;101491.53;;;12.57;74.78
70229;BME280;57617;51.988;5.854;2023-02-19T05:58:16;101496.72;;;12.59;74.71
70229;BME280;57617;51.988;5.854;2023-02-19T06:00:41;101498.88;;;12.57;74.55
70229;BME280;57617;51.988;5.854;2023-02-19T06:03:07;101501.25;;;12.53;75.09
70229;BME280;57617;51.988;5.854;2023-02-19T06:05:32;101503.50;;;12.56;75.14
70229;BME280;57617;51.988;5.854;2023-02-19T06:07:57;101506.47;;;12.55;75.04
70229;BME280;57617;51.988;5.854;2023-02-19T06:10:22;101511.94;;;12.55;74.65
70229;BME280;57617;51.988;5.854;2023-02-19T06:12:51;101516.88;;;12.58;74.56
70229;BME280;57617;51.988;5.854;2023-02-19T06:15:16;101515.00;;;12.58;74.69
70229;BME280;57617;51.988;5.854;2023-02-19T06:17:42;101519.84;;;12.56;74.82
70229;BME280;57617;51.988;5.854;2023-02-19T06:20:07;101523.06;;;12.53;74.41
70229;BME280;57617;51.988;5.854;2023-02-19T06:22:33;101525.28;;;12.56;74.94
70229;BME280;57617;51.988;5.854;2023-02-19T06:24:58;101523.41;;;12.57;74.48
70229;BME280;57617;51.988;5.854;2023-02-19T06:27:23;101532.31;;;12.52;74.88
70229;BME280;57617;51.988;5.854;2023-02-19T06:29:49;101543.88;;;12.48;74.59
70229;BME280;57617;51.988;5.854;2023-02-19T06:32:15;101542.00;;;12.48;74.58
70229;BME280;57617;51.988;5.854;2023-02-19T06:34:40;101551.00;;;12.49;74.79
70229;BME280;57617;51.988;5.854;2023-02-19T06:37:05;101560.59;;;12.51;74.94
70229;BME280;57617;51.988;5.854;2023-02-19T06:39:31;101563.69;;;12.55;74.81
70229;BME280;57617;51.988;5.854;2023-02-19T06:41:57;101560.13;;;12.54;74.52
70229;BME280;57617;51.988;5.854;2023-02-19T06:44:23;101561.19;;;12.53;74.52
70229;BME280;57617;51.988;5.854;2023-02-19T06:46:49;101565.59;;;12.54;74.44
70229;BME280;57617;51.988;5.854;2023-02-19T06:49:14;101561.19;;;12.53;74.60
70229;BME280;57617;51.988;5.854;2023-02-19T06:51:40;101566.88;;;12.52;74.88
70229;BME280;57617;51.988;5.854;2023-02-19T06:54:06;101568.31;;;12.54;74.50
70229;BME280;57617;51.988;5.854;2023-02-19T06:56:36;101569.38;;;12.53;74.76
70229;BME280;57617;51.988;5.854;2023-02-19T06:59:13;101570.56;;;12.57;74.80
70229;BME280;57617;51.988;5.854;2023-02-19T07:01:41;101570.44;;;12.52;74.26
70229;BME280;57617;51.988;5.854;2023-02-19T07:04:06;101591.19;;;12.53;74.46
70229;BME280;57617;51.988;5.854;2023-02-19T07:06:33;101589.75;;;12.51;74.38
70229;BME280;57617;51.988;5.854;2023-02-19T07:08:59;101596.28;;;12.50;74.66
70229;BME280;57617;51.988;5.854;2023-02-19T07:11:25;101598.16;;;12.49;74.58
70229;BME280;57617;51.988;5.854;2023-02-19T07:13:57;101603.84;;;12.48;74.73
70229;BME280;57617;51.988;5.854;2023-02-19T07:16:23;101603.59;;;12.49;74.41
70229;BME280;57617;51.988;5.854;2023-02-19T07:18:49;101613.22;;;12.52;74.45
70229;BME280;57617;51.988;5.854;2023-02-19T07:21:15;101619.13;;;12.49;74.77
70229;BME280;57617;51.988;5.854;2023-02-19T07:23:41;101603.34;;;12.39;74.50
70229;BME280;57617;51.988;5.854;2023-02-19T07:26:08;101616.66;;;12.47;74.72
70229;BME280;57617;51.988;5.854;2023-02-19T07:28:34;101633.00;;;12.47;74.71
70229;BME280;57617;51.988;5.854;2023-02-19T07:31:00;101641.63;;;12.44;74.46
70229;BME280;57617;51.988;5.854;2023-02-19T07:33:26;101638.91;;;12.44;74.62
70229;BME280;57617;51.988;5.854;2023-02-19T07:35:51;101639.47;;;12.46;74.45
70229;BME280;57617;51.988;5.854;2023-02-19T07:38:17;101648.03;;;12.50;74.44
70229;BME280;57617;51.988;5.854;2023-02-19T07:40:56;101639.97;;;12.43;74.06
70229;BME280;57617;51.988;5.854;2023-02-19T07:43:23;101656.69;;;12.47;74.89
70229;BME280;57617;51.988;5.854;2023-02-19T07:45:49;101661.91;;;12.48;74.55
70229;BME280;57617;51.988;5.854;2023-02-19T07:48:14;101672.56;;;12.50;74.67
70229;BME280;57617;51.988;5.854;2023-02-19T07:50:40;101666.06;;;12.51;74.74
70229;BME280;57617;51.988;5.854;2023-02-19T07:53:05;101659.84;;;12.44;74.34
70229;BME280;57617;51.988;5.854;2023-02-19T07:55:31;101662.47;;;12.50;74.74
70229;BME280;57617;51.988;5.854;2023-02-19T07:57:58;101670.66;;;12.50;74.46
70229;BME280;57617;51.988;5.854;2023-02-19T08:00:24;101674.91;;;12.46;74.54
70229;BME280;57617;51.988;5.854;2023-02-19T08:02:51;101677.63;;;12.46;74.46
70229;BME280;57617;51.988;5.854;2023-02-19T08:05:26;101673.03;;;12.47;75.00
70229;BME280;57617;51.988;5.854;2023-02-19T08:07:52;101671.28;;;12.52;74.60
70229;BME280;57617;51.988;5.854;2023-02-19T08:10:17;101672.94;;;12.53;74.32
70229;BME280;57617;51.988;5.854;2023-02-19T08:13:02;101679.19;;;12.54;74.24
70229;BME280;57617;51.988;5.854;2023-02-19T08:15:43;101680.63;;;12.56;74.91
70229;BME280;57617;51.988;5.854;2023-02-19T08:18:10;101686.81;;;12.63;74.43
70229;BME280;57617;51.988;5.854;2023-02-19T08:20:35;101690.38;;;12.64;74.26
70229;BME280;57617;51.988;5.854;2023-02-19T08:23:01;101685.97;;;12.63;74.50
70229;BME280;57617;51.988;5.854;2023-02-19T08:25:27;101697.97;;;12.62;74.12
70229;BME280;57617;51.988;5.854;2023-02-19T08:27:52;101689.78;;;12.62;74.18
70229;BME280;57617;51.988;5.854;2023-02-19T08:30:17;101703.63;;;12.60;74.03
70229;BME280;57617;51.988;5.854;2023-02-19T08:32:43;101690.22;;;12.59;74.10
70229;BME280;57617;51.988;5.854;2023-02-19T08:35:08;101706.13;;;12.62;74.09
70229;BME280;57617;51.988;5.854;2023-02-19T08:37:33;101713.00;;;12.64;74.32
70229;BME280;57617;51.988;5.854;2023-02-19T08:39:59;101716.31;;;12.66;74.28
70229;BME280;57617;51.988;5.854;2023-02-19T08:42:24;101720.13;;;12.65;74.58
70229;BME280;57617;51.988;5.854;2023-02-19T08:44:49;101728.28;;;12.65;74.13
70229;BME280;57617;51.988;5.854;2023-02-19T08:47:14;101715.16;;;12.62;74.42
70229;BME280;57617;51.988;5.854;2023-02-19T08:49:40;101736.38;;;12.72;74.29
70229;BME280;57617;51.988;5.854;2023-02-19T08:52:05;101737.81;;;12.74;74.49
70229;BME280;57617;51.988;5.854;2023-02-19T08:54:30;101743.72;;;12.71;73.98
70229;BME280;57617;51.988;5.854;2023-02-19T08:56:55;101751.91;;;12.71;74.42
70229;BME280;57617;51.988;5.854;2023-02-19T08:59:21;101756.31;;;12.72;73.97
70229;BME280;57617;51.988;5.854;2023-02-19T09:01:46;101740.53;;;12.74;74.30
70229;BME280;57617;51.988;5.854;2023-02-19T09:04:11;101740.09;;;12.77;73.88
70229;BME280;57617;51.988;5.854;2023-02-19T09:06:37;101742.56;;;12.79;74.39
70229;BME280;57617;51.988;5.854;2023-02-19T09:09:03;101743.31;;;12.86;73.98
70229;BME280;57617;51.988;5.854;2023-02-19T09:11:28;101742.84;;;12.89;73.90
70229;BME280;57617;51.988;5.854;2023-02-19T09:13:55;101741.41;;;12.86;74.04
70229;BME280;57617;51.988;5.854;2023-02-19T09:16:20;101745.34;;;12.90;73.94
70229;BME280;57617;51.988;5.854;2023-02-19T09:18:46;101754.34;;;12.91;73.89
70229;BME280;57617;51.988;5.854;2023-02-19T09:21:11;101749.72;;;12.91;74.06
70229;BME280;57617;51.988;5.854;2023-02-19T09:23:36;101769.88;;;12.90;73.98
70229;BME280;57617;51.988;5.854;2023-02-19T09:26:03;101771.75;;;12.90;73.65
70229;BME280;57617;51.988;5.854;2023-02-19T09:28:31;101778.50;;;12.87;73.58
70229;BME280;57617;51.988;5.854;2023-02-19T09:31:05;101782.91;;;12.88;73.89
70229;BME280;57617;51.988;5.854;2023-02-19T09:33:31;101780.66;;;12.85;73.95
70229;BME280;57617;51.988;5.854;2023-02-19T09:35:58;101789.88;;;12.84;74.24
70229;BME280;57617;51.988;5.854;2023-02-19T09:38:24;101796.56;;;12.88;73.75
70229;BME280;57617;51.988;5.854;2023-02-19T09:40:49;101797.13;;;12.90;73.63
70229;BME280;57617;51.988;5.854;2023-02-19T09:43:17;101804.03;;;12.93;73.73
70229;BME280;57617;51.988;5.854;2023-02-19T09:45:44;101816.81;;;12.92;74.16
70229;BME280;57617;51.988;5.854;2023-02-19T09:48:11;101818.38;;;12.88;73.69
70229;BME280;57617;51.988;5.854;2023-02-19T09:50:39;101817.97;;;12.85;73.70
70229;BME280;57617;51.988;5.854;2023-02-19T09:53:33;101828.88;;;12.85;73.63
70229;BME280;57617;51.988;5.854;2023-02-19T09:55:58;101825.47;;;12.89;73.79
70229;BME280;57617;51.988;5.854;2023-02-19T09:58:31;101832.13;;;12.93;73.58
70229;BME280;57617;51.988;5.854;2023-02-19T10:00:59;101837.34;;;12.95;74.28
70229;BME280;57617;51.988;5.854;2023-02-19T10:03:27;101845.94;;;12.98;73.55
70229;BME280;57617;51.988;5.854;2023-02-19T10:05:58;101846.16;;;12.97;73.76
70229;BME280;57617;51.988;5.854;2023-02-19T10:08:26;101857.91;;;12.97;74.11
70229;BME280;57617;51.988;5.854;2023-02-19T10:10:52;101865.84;;;12.99;74.06
70229;BME280;57617;51.988;5.854;2023-02-19T10:13:40;101863.75;;;13.01;73.89
70229;BME280;57617;51.988;5.854;2023-02-19T10:16:10;101868.94;;;13.02;73.58
70229;BME280;57617;51.988;5.854;2023-02-19T10:18:41;101876.31;;;13.02;73.81
70229;BME280;57617;51.988;5.854;2023-02-19T10:21:16;101881.53;;;13.03;73.46
70229;BME280;57617;51.988;5.854;2023-02-19T10:23:43;101871.22;;;13.05;73.77
70229;BME280;57617;51.988;5.854;2023-02-19T10:26:09;101880.13;;;13.12;73.12
70229;BME280;57617;51.988;5.854;2023-02-19T10:28:35;101882.50;;;13.09;73.00
70229;BME280;57617;51.988;5.854;2023-02-19T10:31:04;101893.88;;;13.06;73.10
70229;BME280;57617;51.988;5.854;2023-02-19T10:33:31;101897.44;;;13.06;73.43
70229;BME280;57617;51.988;5.854;2023-02-19T10:36:04;101908.13;;;13.08;73.05
70229;BME280;57617;51.988;5.854;2023-02-19T10:38:32;101911.53;;;13.03;73.56
70229;BME280;57617;51.988;5.854;2023-02-19T10:41:05;101902.88;;;13.06;73.04
70229;BME280;57617;51.988;5.854;2023-02-19T10:43:34;101918.03;;;13.02;73.05
70229;BME280;57617;51.988;5.854;2023-02-19T10:46:06;101926.53;;;12.94;73.07
70229;BME280;57617;51.988;5.854;2023-02-19T10:48:36;101922.56;;;12.90;73.43
70229;BME280;57617;51.988;5.854;2023-02-19T10:51:08;101915.59;;;12.94;73.69
70229;BME280;57617;51.988;5.854;2023-02-19T10:53:41;101919.84;;;12.90;73.24
70229;BME280;57617;51.988;5.854;2023-02-19T10:56:11;101925.75;;;12.87;73.60
70229;BME280;57617;51.988;5.854;2023-02-19T10:58:37;101925.31;;;12.90;73.69
70229;BME280;57617;51.988;5.854;2023-02-19T11:01:23;101928.63;;;12.92;72.89
70229;BME280;57617;51.988;5.854;2023-02-19T11:03:52;101918.34;;;12.94;72.94
70229;BME280;57617;51.988;5.854;2023-02-19T11:06:37;101915.47;;;12.89;73.18
70229;BME280;57617;51.988;5.854;2023-02-19T11:09:03;101908.72;;;12.92;73.15
70229;BME280;57617;51.988;5.854;2023-02-19T11:11:34;101899.47;;;12.93;72.79
70229;BME280;57617;51.988;5.854;2023-02-19T11:14:21;101899.69;;;12.91;72.36
70229;BME280;57617;51.988;5.854;2023-02-19T11:16:51;101905.16;;;12.91;72.93
70229;BME280;57617;51.988;5.854;2023-02-19T11:19:38;101902.38;;;12.98;72.75
70229;BME280;57617;51.988;5.854;2023-02-19T11:24:48;101911.41;;;12.98;72.87
70229;BME280;57617;51.988;5.854;2023-02-19T11:27:20;101906.38;;;12.95;72.99
70229;BME280;57617;51.988;5.854;2023-02-19T11:29:46;101894.31;;;12.85;73.10
70229;BME280;57617;51.988;5.854;2023-02-19T11:32:29;101916.91;;;12.92;72.93
70229;BME280;57617;51.988;5.854;2023-02-19T11:35:24;101917.28;;;12.95;73.11
70229;BME280;57617;51.988;5.854;2023-02-19T11:40:23;101908.41;;;13.00;72.99
70229;BME280;57617;51.988;5.854;2023-02-19T11:48:51;101921.66;;;13.14;73.10
70229;BME280;57617;51.988;5.854;2023-02-19T11:51:30;101928.34;;;13.18;72.90
70229;BME280;57617;51.988;5.854;2023-02-19T11:54:07;101929.53;;;13.22;73.01
70229;BME280;57617;51.988;5.854;2023-02-19T11:56:39;101925.13;;;13.21;72.74
70229;BME280;57617;51.988;5.854;2023-02-19T11:59:29;101938.56;;;13.23;72.41
70229;BME280;57617;51.988;5.854;2023-02-19T12:02:23;101931.56;;;13.27;72.42
70229;BME280;57617;51.988;5.854;2023-02-19T12:13:30;101922.47;;;13.33;71.96
70229;BME280;57617;51.988;5.854;2023-02-19T12:22:08;101936.53;;;13.18;71.64
70229;BME280;57617;51.988;5.854;2023-02-19T12:24:42;101941.44;;;13.10;71.49
70229;BME280;57617;51.988;5.854;2023-02-19T12:27:29;101940.00;;;13.07;71.34
70229;BME280;57617;51.988;5.854;2023-02-19T12:30:26;101934.41;;;13.02;72.00
70229;BME280;57617;51.988;5.854;2023-02-19T12:38:46;101943.13;;;13.11;72.19
70229;BME280;57617;51.988;5.854;2023-02-19T12:44:12;101932.22;;;13.11;71.85
70229;BME280;57617;51.988;5.854;2023-02-19T12:46:47;101940.78;;;13.14;72.35
70229;BME280;57617;51.988;5.854;2023-02-19T12:49:29;101952.28;;;13.16;72.17
70229;BME280;57617;51.988;5.854;2023-02-19T12:52:02;101946.44;;;13.13;72.17
70229;BME280;57617;51.988;5.854;2023-02-19T12:54:37;101946.59;;;13.18;72.48
70229;BME280;57617;51.988;5.854;2023-02-19T12:57:10;101953.25;;;13.22;71.75
70229;BME280;57617;51.988;5.854;2023-02-19T12:59:51;101953.63;;;13.25;72.02
70229;BME280;57617;51.988;5.854;2023-02-19T13:02:25;101951.50;;;13.27;72.20
70229;BME280;57617;51.988;5.854;2023-02-19T13:05:14;101949.13;;;13.31;71.33
70229;BME280;57617;51.988;5.854;2023-02-19T13:10:24;101953.28;;;13.33;71.92
70229;BME280;57617;51.988;5.854;2023-02-19T13:12:53;101966.34;;;13.31;72.30
70229;BME280;57617;51.988;5.854;2023-02-19T13:15:32;101972.88;;;13.30;71.80
70229;BME280;57617;51.988;5.854;2023-02-19T13:17:59;101984.72;;;13.24;71.77
70229;BME280;57617;51.988;5.854;2023-02-19T13:20:33;101990.03;;;13.19;71.61
70229;BME280;57617;51.988;5.854;2023-02-19T13:28:54;101994.69;;;13.12;71.92
70229;BME280;57617;51.988;5.854;2023-02-19T13:32:13;102001.38;;;13.16;71.62
70229;BME280;57617;51.988;5.854;2023-02-19T13:37:26;102003.50;;;13.14;71.64
70229;BME280;57617;51.988;5.854;2023-02-19T13:39:56;102012.13;;;13.11;71.54
70229;BME280;57617;51.988;5.854;2023-02-19T13:44:48;102018.28;;;13.07;71.84
70229;BME280;57617;51.988;5.854;2023-02-19T13:50:31;102014.34;;;13.03;71.71
70229;BME280;57617;51.988;5.854;2023-02-19T13:52:58;102011.63;;;13.03;71.94
70229;BME280;57617;51.988;5.854;2023-02-19T13:55:45;102016.31;;;12.96;70.79
70229;BME280;57617;51.988;5.854;2023-02-19T13:58:37;102023.91;;;12.87;71.67
70229;BME280;57617;51.988;5.854;2023-02-19T14:01:06;102023.31;;;12.85;71.86
70229;BME280;57617;51.988;5.854;2023-02-19T14:03:51;102027.50;;;12.88;72.38
70229;BME280;57617;51.988;5.854;2023-02-19T14:06:17;102029.00;;;12.84;71.78
70229;BME280;57617;51.988;5.854;2023-02-19T14:08:55;102033.47;;;12.78;71.93
70229;BME280;57617;51.988;5.854;2023-02-19T14:14:33;102046.31;;;12.71;71.62
70229;BME280;57617;51.988;5.854;2023-02-19T14:19:47;102049.72;;;12.67;71.62
70229;BME280;57617;51.988;5.854;2023-02-19T14:25:44;102060.13;;;12.52;71.00
70229;BME280;57617;51.988;5.854;2023-02-19T14:30:55;102062.19;;;12.32;71.66
70229;BME280;57617;51.988;5.854;2023-02-19T14:33:24;102061.41;;;12.25;71.47
70229;BME280;57617;51.988;5.854;2023-02-19T14:35:53;102051.78;;;12.22;72.06
70229;BME280;57617;51.988;5.854;2023-02-19T14:38:34;102055.34;;;12.23;71.90